sensor_id;sensor_type;location;lat;lon;timestamp;P1;durP1;ratioP1;P2;durP2;ratioP2
38222;SDS011;24024;51.186;6.458;2022-07-10T00:00:53;5.32;;;1.60;;
38222;SDS011;24024;51.186;6.458;2022-07-10T00:03:25;7.55;;;1.65;;
38222;SDS011;24024;51.186;6.458;2022-07-10T00:05:52;8.43;;;1.30;;
38222;SDS011;24024;51.186;6.458;2022-07-10T00:08:21;3.58;;;1.27;;
38222;SDS011;24024;51.186;6.458;2022-07-10T00:10:47;5.68;;;1.40;;
38222;SDS011;24024;51.186;6.458;2022-07-10T00:13:14;4.97;;;1.38;;
38222;SDS011;24024;51.186;6.458;2022-07-10T00:15:41;4.90;;;1.70;;
38222;SDS011;24024;51.186;6.458;2022-07-10T00:18:10;4.80;;;1.80;;
38222;SDS011;24024;51.186;6.458;2022-07-10T00:20:39;5.50;;;1.40;;
38222;SDS011;24024;51.186;6.458;2022-07-10T00:23:06;4.25;;;1.30;;
38222;SDS011;24024;51.186;6.458;2022-07-10T00:25:33;8.73;;;1.50;;
38222;SDS011;24024;51.186;6.458;2022-07-10T00:27:59;6.03;;;1.27;;
38222;SDS011;24024;51.186;6.458;2022-07-10T00:30:29;5.45;;;1.40;;
38222;SDS011;24024;51.186;6.458;2022-07-10T00:32:56;4.68;;;1.23;;
38222;SDS011;24024;51.186;6.458;2022-07-10T00:35:23;5.65;;;1.17;;
38222;SDS011;24024;51.186;6.458;2022-07-10T00:37:49;7.10;;;1.40;;
38222;SDS011;24024;51.186;6.458;2022-07-10T00:40:19;7.43;;;1.38;;
38222;SDS011;24024;51.186;6.458;2022-07-10T00:42:47;5.40;;;1.70;;
38222;SDS011;24024;51.186;6.458;2022-07-10T00:45:14;6.20;;;1.20;;
38222;SDS011;24024;51.186;6.458;2022-07-10T00:47:41;4.93;;;1.48;;
38222;SDS011;24024;51.186;6.458;2022-07-10T00:50:08;7.25;;;1.40;;
38222;SDS011;24024;51.186;6.458;2022-07-10T00:52:35;8.68;;;1.90;;
38222;SDS011;24024;51.186;6.458;2022-07-10T00:55:07;5.95;;;1.33;;
38222;SDS011;24024;51.186;6.458;2022-07-10T00:57:39;6.22;;;1.30;;
38222;SDS011;24024;51.186;6.458;2022-07-10T01:00:08;4.82;;;1.38;;
38222;SDS011;24024;51.186;6.458;2022-07-10T01:02:41;4.97;;;1.40;;
38222;SDS011;24024;51.186;6.458;2022-07-10T01:05:11;7.28;;;1.92;;
38222;SDS011;24024;51.186;6.458;2022-07-10T01:07:40;6.10;;;1.08;;
38222;SDS011;24024;51.186;6.458;2022-07-10T01:10:07;4.72;;;1.17;;
38222;SDS011;24024;51.186;6.458;2022-07-10T01:12:34;8.70;;;1.40;;
38222;SDS011;24024;51.186;6.458;2022-07-10T01:15:04;5.05;;;1.10;;
38222;SDS011;24024;51.186;6.458;2022-07-10T01:17:31;6.10;;;1.30;;
38222;SDS011;24024;51.186;6.458;2022-07-10T01:20:03;5.43;;;1.30;;
38222;SDS011;24024;51.186;6.458;2022-07-10T01:22:34;6.22;;;1.50;;
38222;SDS011;24024;51.186;6.458;2022-07-10T01:25:03;7.35;;;1.35;;
38222;SDS011;24024;51.186;6.458;2022-07-10T01:27:32;5.65;;;1.50;;
38222;SDS011;24024;51.186;6.458;2022-07-10T01:30:01;6.75;;;1.65;;
38222;SDS011;24024;51.186;6.458;2022-07-10T01:32:40;4.78;;;1.42;;
38222;SDS011;24024;51.186;6.458;2022-07-10T01:35:07;6.88;;;1.73;;
38222;SDS011;24024;51.186;6.458;2022-07-10T01:37:34;5.45;;;1.33;;
38222;SDS011;24024;51.186;6.458;2022-07-10T01:40:07;6.65;;;1.70;;
38222;SDS011;24024;51.186;6.458;2022-07-10T01:42:39;7.53;;;1.67;;
38222;SDS011;24024;51.186;6.458;2022-07-10T01:45:09;5.18;;;1.67;;
38222;SDS011;24024;51.186;6.458;2022-07-10T01:47:36;7.03;;;1.60;;
38222;SDS011;24024;51.186;6.458;2022-07-10T01:50:04;7.60;;;1.98;;
38222;SDS011;24024;51.186;6.458;2022-07-10T01:52:34;5.95;;;1.50;;
38222;SDS011;24024;51.186;6.458;2022-07-10T01:55:01;8.02;;;1.70;;
38222;SDS011;24024;51.186;6.458;2022-07-10T01:57:28;6.30;;;1.67;;
38222;SDS011;24024;51.186;6.458;2022-07-10T02:00:00;5.32;;;1.40;;
38222;SDS011;24024;51.186;6.458;2022-07-10T02:02:26;5.53;;;1.70;;
38222;SDS011;24024;51.186;6.458;2022-07-10T02:04:56;6.72;;;1.50;;
38222;SDS011;24024;51.186;6.458;2022-07-10T02:07:23;6.13;;;1.73;;
38222;SDS011;24024;51.186;6.458;2022-07-10T02:09:52;6.60;;;1.90;;
38222;SDS011;24024;51.186;6.458;2022-07-10T02:12:18;7.65;;;1.70;;
38222;SDS011;24024;51.186;6.458;2022-07-10T02:14:48;5.03;;;1.40;;
38222;SDS011;24024;51.186;6.458;2022-07-10T02:17:15;5.25;;;1.73;;
38222;SDS011;24024;51.186;6.458;2022-07-10T02:19:44;6.38;;;1.60;;
38222;SDS011;24024;51.186;6.458;2022-07-10T02:22:11;5.68;;;1.80;;
38222;SDS011;24024;51.186;6.458;2022-07-10T02:24:38;5.35;;;1.88;;
38222;SDS011;24024;51.186;6.458;2022-07-10T02:27:04;6.97;;;1.63;;
38222;SDS011;24024;51.186;6.458;2022-07-10T02:29:31;5.80;;;1.52;;
38222;SDS011;24024;51.186;6.458;2022-07-10T02:31:58;7.10;;;1.85;;
38222;SDS011;24024;51.186;6.458;2022-07-10T02:34:27;7.78;;;1.80;;
38222;SDS011;24024;51.186;6.458;2022-07-10T02:36:54;8.18;;;1.88;;
38222;SDS011;24024;51.186;6.458;2022-07-10T02:39:23;6.18;;;2.15;;
38222;SDS011;24024;51.186;6.458;2022-07-10T02:41:50;6.25;;;1.80;;
38222;SDS011;24024;51.186;6.458;2022-07-10T02:44:20;8.38;;;1.88;;
38222;SDS011;24024;51.186;6.458;2022-07-10T02:46:48;4.28;;;1.60;;
38222;SDS011;24024;51.186;6.458;2022-07-10T02:49:15;7.95;;;1.85;;
38222;SDS011;24024;51.186;6.458;2022-07-10T02:51:42;8.70;;;1.90;;
38222;SDS011;24024;51.186;6.458;2022-07-10T02:54:09;7.35;;;1.70;;
38222;SDS011;24024;51.186;6.458;2022-07-10T02:56:38;7.53;;;1.80;;
38222;SDS011;24024;51.186;6.458;2022-07-10T02:59:05;8.75;;;2.10;;
38222;SDS011;24024;51.186;6.458;2022-07-10T03:01:35;7.85;;;1.80;;
38222;SDS011;24024;51.186;6.458;2022-07-10T03:04:01;5.72;;;1.60;;
38222;SDS011;24024;51.186;6.458;2022-07-10T03:06:31;6.60;;;2.22;;
38222;SDS011;24024;51.186;6.458;2022-07-10T03:08:59;5.43;;;1.92;;
38222;SDS011;24024;51.186;6.458;2022-07-10T03:11:26;4.80;;;2.10;;
38222;SDS011;24024;51.186;6.458;2022-07-10T03:13:58;7.00;;;2.10;;
38222;SDS011;24024;51.186;6.458;2022-07-10T03:16:25;5.55;;;1.92;;
38222;SDS011;24024;51.186;6.458;2022-07-10T03:18:54;5.80;;;1.90;;
38222;SDS011;24024;51.186;6.458;2022-07-10T03:21:23;6.95;;;1.90;;
38222;SDS011;24024;51.186;6.458;2022-07-10T03:23:49;7.82;;;2.20;;
38222;SDS011;24024;51.186;6.458;2022-07-10T03:26:16;7.97;;;2.10;;
38222;SDS011;24024;51.186;6.458;2022-07-10T03:28:43;7.10;;;2.22;;
38222;SDS011;24024;51.186;6.458;2022-07-10T03:31:10;7.28;;;2.22;;
38222;SDS011;24024;51.186;6.458;2022-07-10T03:33:36;10.15;;;2.42;;
38222;SDS011;24024;51.186;6.458;2022-07-10T03:36:05;5.15;;;1.92;;
38222;SDS011;24024;51.186;6.458;2022-07-10T03:38:35;9.48;;;2.60;;
38222;SDS011;24024;51.186;6.458;2022-07-10T03:41:02;6.05;;;2.20;;
38222;SDS011;24024;51.186;6.458;2022-07-10T03:43:31;10.88;;;2.70;;
38222;SDS011;24024;51.186;6.458;2022-07-10T03:46:00;7.20;;;2.33;;
38222;SDS011;24024;51.186;6.458;2022-07-10T03:48:27;5.85;;;2.08;;
38222;SDS011;24024;51.186;6.458;2022-07-10T03:50:56;9.00;;;2.17;;
38222;SDS011;24024;51.186;6.458;2022-07-10T03:53:23;7.60;;;2.20;;
38222;SDS011;24024;51.186;6.458;2022-07-10T03:55:50;6.35;;;2.28;;
38222;SDS011;24024;51.186;6.458;2022-07-10T03:58:17;5.60;;;2.00;;
38222;SDS011;24024;51.186;6.458;2022-07-10T04:00:43;5.57;;;2.10;;
38222;SDS011;24024;51.186;6.458;2022-07-10T04:03:10;6.57;;;2.30;;
38222;SDS011;24024;51.186;6.458;2022-07-10T04:05:37;5.63;;;2.22;;
38222;SDS011;24024;51.186;6.458;2022-07-10T04:08:04;8.02;;;2.90;;
38222;SDS011;24024;51.186;6.458;2022-07-10T04:10:31;8.75;;;2.38;;
38222;SDS011;24024;51.186;6.458;2022-07-10T04:13:00;10.23;;;2.55;;
38222;SDS011;24024;51.186;6.458;2022-07-10T04:15:27;6.88;;;2.83;;
38222;SDS011;24024;51.186;6.458;2022-07-10T04:17:54;6.57;;;2.40;;
38222;SDS011;24024;51.186;6.458;2022-07-10T04:20:21;9.90;;;2.78;;
38222;SDS011;24024;51.186;6.458;2022-07-10T04:22:48;6.95;;;3.00;;
38222;SDS011;24024;51.186;6.458;2022-07-10T04:25:15;7.90;;;2.30;;
38222;SDS011;24024;51.186;6.458;2022-07-10T04:27:44;7.15;;;2.58;;
38222;SDS011;24024;51.186;6.458;2022-07-10T04:30:12;7.18;;;2.20;;
38222;SDS011;24024;51.186;6.458;2022-07-10T04:32:38;9.20;;;2.58;;
38222;SDS011;24024;51.186;6.458;2022-07-10T04:35:05;5.90;;;2.00;;
38222;SDS011;24024;51.186;6.458;2022-07-10T04:37:35;7.72;;;2.53;;
38222;SDS011;24024;51.186;6.458;2022-07-10T04:40:02;10.23;;;2.50;;
38222;SDS011;24024;51.186;6.458;2022-07-10T04:42:29;7.10;;;2.60;;
38222;SDS011;24024;51.186;6.458;2022-07-10T04:44:55;10.27;;;2.45;;
38222;SDS011;24024;51.186;6.458;2022-07-10T04:47:22;7.07;;;2.20;;
38222;SDS011;24024;51.186;6.458;2022-07-10T04:49:49;6.63;;;1.90;;
38222;SDS011;24024;51.186;6.458;2022-07-10T04:52:16;6.22;;;2.50;;
38222;SDS011;24024;51.186;6.458;2022-07-10T04:54:44;7.82;;;2.47;;
38222;SDS011;24024;51.186;6.458;2022-07-10T04:57:11;7.63;;;2.25;;
38222;SDS011;24024;51.186;6.458;2022-07-10T04:59:38;6.30;;;2.10;;
38222;SDS011;24024;51.186;6.458;2022-07-10T05:02:07;11.68;;;2.90;;
38222;SDS011;24024;51.186;6.458;2022-07-10T05:04:34;5.25;;;2.10;;
38222;SDS011;24024;51.186;6.458;2022-07-10T05:07:01;6.40;;;1.90;;
38222;SDS011;24024;51.186;6.458;2022-07-10T05:09:28;6.82;;;3.13;;
38222;SDS011;24024;51.186;6.458;2022-07-10T05:11:54;8.70;;;2.95;;
38222;SDS011;24024;51.186;6.458;2022-07-10T05:14:24;6.90;;;1.80;;
38222;SDS011;24024;51.186;6.458;2022-07-10T05:16:51;7.35;;;2.30;;
38222;SDS011;24024;51.186;6.458;2022-07-10T05:19:18;7.22;;;1.90;;
38222;SDS011;24024;51.186;6.458;2022-07-10T05:21:45;6.07;;;2.00;;
38222;SDS011;24024;51.186;6.458;2022-07-10T05:24:14;8.73;;;2.50;;
38222;SDS011;24024;51.186;6.458;2022-07-10T05:26:41;5.80;;;1.83;;
38222;SDS011;24024;51.186;6.458;2022-07-10T05:29:10;9.95;;;2.15;;
38222;SDS011;24024;51.186;6.458;2022-07-10T05:31:36;5.88;;;2.28;;
38222;SDS011;24024;51.186;6.458;2022-07-10T05:34:06;8.00;;;2.15;;
38222;SDS011;24024;51.186;6.458;2022-07-10T05:36:33;6.07;;;1.95;;
38222;SDS011;24024;51.186;6.458;2022-07-10T05:38:59;6.68;;;1.85;;
38222;SDS011;24024;51.186;6.458;2022-07-10T05:41:26;7.50;;;2.13;;
38222;SDS011;24024;51.186;6.458;2022-07-10T05:43:54;5.50;;;2.03;;
38222;SDS011;24024;51.186;6.458;2022-07-10T05:46:21;8.40;;;2.20;;
38222;SDS011;24024;51.186;6.458;2022-07-10T05:48:48;4.80;;;2.05;;
38222;SDS011;24024;51.186;6.458;2022-07-10T05:51:17;8.55;;;2.30;;
38222;SDS011;24024;51.186;6.458;2022-07-10T05:54:08;7.40;;;2.05;;
38222;SDS011;24024;51.186;6.458;2022-07-10T05:56:35;4.85;;;2.10;;
38222;SDS011;24024;51.186;6.458;2022-07-10T05:59:07;7.60;;;2.10;;
38222;SDS011;24024;51.186;6.458;2022-07-10T06:01:33;7.93;;;2.20;;
38222;SDS011;24024;51.186;6.458;2022-07-10T06:04:03;11.25;;;2.60;;
38222;SDS011;24024;51.186;6.458;2022-07-10T06:06:29;6.85;;;2.25;;
38222;SDS011;24024;51.186;6.458;2022-07-10T06:08:56;5.05;;;2.20;;
38222;SDS011;24024;51.186;6.458;2022-07-10T06:11:25;7.38;;;2.00;;
38222;SDS011;24024;51.186;6.458;2022-07-10T06:13:51;7.10;;;2.17;;
38222;SDS011;24024;51.186;6.458;2022-07-10T06:16:20;7.43;;;2.20;;
38222;SDS011;24024;51.186;6.458;2022-07-10T06:18:49;7.55;;;2.10;;
38222;SDS011;24024;51.186;6.458;2022-07-10T06:21:17;6.57;;;2.30;;
38222;SDS011;24024;51.186;6.458;2022-07-10T06:23:47;5.88;;;2.25;;
38222;SDS011;24024;51.186;6.458;2022-07-10T06:26:17;6.18;;;2.25;;
38222;SDS011;24024;51.186;6.458;2022-07-10T06:28:46;8.98;;;2.40;;
38222;SDS011;24024;51.186;6.458;2022-07-10T06:31:13;9.73;;;2.22;;
38222;SDS011;24024;51.186;6.458;2022-07-10T06:33:42;9.45;;;1.80;;
38222;SDS011;24024;51.186;6.458;2022-07-10T06:36:09;6.78;;;2.08;;
38222;SDS011;24024;51.186;6.458;2022-07-10T06:38:38;7.82;;;2.30;;
38222;SDS011;24024;51.186;6.458;2022-07-10T06:41:06;8.52;;;2.35;;
38222;SDS011;24024;51.186;6.458;2022-07-10T06:43:33;4.75;;;1.88;;
38222;SDS011;24024;51.186;6.458;2022-07-10T06:46:02;7.38;;;2.00;;
38222;SDS011;24024;51.186;6.458;2022-07-10T06:48:29;7.40;;;2.40;;
38222;SDS011;24024;51.186;6.458;2022-07-10T06:50:56;8.18;;;2.08;;
38222;SDS011;24024;51.186;6.458;2022-07-10T06:53:25;7.75;;;2.20;;
38222;SDS011;24024;51.186;6.458;2022-07-10T06:55:54;5.82;;;1.90;;
38222;SDS011;24024;51.186;6.458;2022-07-10T06:58:23;8.73;;;2.10;;
38222;SDS011;24024;51.186;6.458;2022-07-10T07:00:50;6.70;;;1.95;;
38222;SDS011;24024;51.186;6.458;2022-07-10T07:03:19;10.27;;;2.40;;
38222;SDS011;24024;51.186;6.458;2022-07-10T07:05:48;9.40;;;2.35;;
38222;SDS011;24024;51.186;6.458;2022-07-10T07:08:15;6.70;;;2.22;;
38222;SDS011;24024;51.186;6.458;2022-07-10T07:10:42;9.73;;;2.10;;
38222;SDS011;24024;51.186;6.458;2022-07-10T07:13:10;6.45;;;2.05;;
38222;SDS011;24024;51.186;6.458;2022-07-10T07:15:37;9.45;;;2.53;;
38222;SDS011;24024;51.186;6.458;2022-07-10T07:18:08;5.88;;;1.90;;
38222;SDS011;24024;51.186;6.458;2022-07-10T07:20:38;5.75;;;1.75;;
38222;SDS011;24024;51.186;6.458;2022-07-10T07:23:24;9.02;;;2.67;;
38222;SDS011;24024;51.186;6.458;2022-07-10T07:25:50;9.50;;;2.47;;
38222;SDS011;24024;51.186;6.458;2022-07-10T07:28:18;6.28;;;1.92;;
38222;SDS011;24024;51.186;6.458;2022-07-10T07:30:48;8.70;;;1.98;;
38222;SDS011;24024;51.186;6.458;2022-07-10T07:33:15;8.38;;;2.80;;
38222;SDS011;24024;51.186;6.458;2022-07-10T07:35:42;6.32;;;2.17;;
38222;SDS011;24024;51.186;6.458;2022-07-10T07:38:11;7.10;;;2.55;;
38222;SDS011;24024;51.186;6.458;2022-07-10T07:40:43;7.82;;;2.05;;
38222;SDS011;24024;51.186;6.458;2022-07-10T07:43:12;7.30;;;2.45;;
38222;SDS011;24024;51.186;6.458;2022-07-10T07:45:39;7.82;;;2.60;;
38222;SDS011;24024;51.186;6.458;2022-07-10T07:48:08;6.80;;;2.20;;
38222;SDS011;24024;51.186;6.458;2022-07-10T07:50:35;8.50;;;2.55;;
38222;SDS011;24024;51.186;6.458;2022-07-10T07:53:03;9.38;;;2.60;;
38222;SDS011;24024;51.186;6.458;2022-07-10T07:55:31;8.43;;;2.80;;
38222;SDS011;24024;51.186;6.458;2022-07-10T07:58:00;7.45;;;2.40;;
38222;SDS011;24024;51.186;6.458;2022-07-10T08:00:30;8.90;;;2.38;;
38222;SDS011;24024;51.186;6.458;2022-07-10T08:02:59;9.40;;;2.33;;
38222;SDS011;24024;51.186;6.458;2022-07-10T08:05:29;5.47;;;2.15;;
38222;SDS011;24024;51.186;6.458;2022-07-10T08:07:59;6.80;;;2.15;;
38222;SDS011;24024;51.186;6.458;2022-07-10T08:10:34;6.25;;;2.30;;
38222;SDS011;24024;51.186;6.458;2022-07-10T08:13:09;12.25;;;2.80;;
38222;SDS011;24024;51.186;6.458;2022-07-10T08:15:36;6.05;;;2.20;;
38222;SDS011;24024;51.186;6.458;2022-07-10T08:18:05;7.43;;;2.10;;
38222;SDS011;24024;51.186;6.458;2022-07-10T08:20:33;6.88;;;2.03;;
38222;SDS011;24024;51.186;6.458;2022-07-10T08:23:00;8.38;;;2.80;;
38222;SDS011;24024;51.186;6.458;2022-07-10T08:25:28;6.70;;;2.17;;
38222;SDS011;24024;51.186;6.458;2022-07-10T08:28:02;6.40;;;2.00;;
38222;SDS011;24024;51.186;6.458;2022-07-10T08:30:31;7.50;;;2.15;;
38222;SDS011;24024;51.186;6.458;2022-07-10T08:32:58;7.10;;;2.40;;
38222;SDS011;24024;51.186;6.458;2022-07-10T08:35:27;6.75;;;2.05;;
38222;SDS011;24024;51.186;6.458;2022-07-10T08:37:54;7.45;;;1.83;;
38222;SDS011;24024;51.186;6.458;2022-07-10T08:40:24;8.32;;;1.95;;
38222;SDS011;24024;51.186;6.458;2022-07-10T08:42:50;11.82;;;1.95;;
38222;SDS011;24024;51.186;6.458;2022-07-10T08:45:20;10.73;;;1.73;;
38222;SDS011;24024;51.186;6.458;2022-07-10T08:47:47;7.07;;;2.00;;
38222;SDS011;24024;51.186;6.458;2022-07-10T08:50:15;9.35;;;3.13;;
38222;SDS011;24024;51.186;6.458;2022-07-10T08:53:09;9.45;;;2.00;;
38222;SDS011;24024;51.186;6.458;2022-07-10T08:55:42;11.65;;;2.55;;
38222;SDS011;24024;51.186;6.458;2022-07-10T08:58:09;7.90;;;1.90;;
38222;SDS011;24024;51.186;6.458;2022-07-10T09:00:38;7.90;;;2.20;;
38222;SDS011;24024;51.186;6.458;2022-07-10T09:03:07;10.65;;;2.10;;
38222;SDS011;24024;51.186;6.458;2022-07-10T09:05:34;9.10;;;2.25;;
38222;SDS011;24024;51.186;6.458;2022-07-10T09:08:02;9.63;;;2.10;;
38222;SDS011;24024;51.186;6.458;2022-07-10T09:10:47;8.02;;;2.30;;
38222;SDS011;24024;51.186;6.458;2022-07-10T09:13:13;7.63;;;2.47;;
38222;SDS011;24024;51.186;6.458;2022-07-10T09:15:47;9.98;;;2.65;;
38222;SDS011;24024;51.186;6.458;2022-07-10T09:18:18;9.65;;;2.40;;
38222;SDS011;24024;51.186;6.458;2022-07-10T09:20:54;10.77;;;2.58;;
38222;SDS011;24024;51.186;6.458;2022-07-10T09:23:21;9.60;;;2.60;;
38222;SDS011;24024;51.186;6.458;2022-07-10T09:25:52;6.68;;;2.30;;
38222;SDS011;24024;51.186;6.458;2022-07-10T09:28:20;7.05;;;2.50;;
38222;SDS011;24024;51.186;6.458;2022-07-10T09:30:48;10.88;;;2.88;;
38222;SDS011;24024;51.186;6.458;2022-07-10T09:33:21;8.23;;;2.72;;
38222;SDS011;24024;51.186;6.458;2022-07-10T09:41:13;12.13;;;4.63;;
38222;SDS011;24024;51.186;6.458;2022-07-10T09:43:53;11.75;;;3.67;;
38222;SDS011;24024;51.186;6.458;2022-07-10T09:46:36;11.07;;;3.85;;
38222;SDS011;24024;51.186;6.458;2022-07-10T09:54:14;8.77;;;3.50;;
38222;SDS011;24024;51.186;6.458;2022-07-10T09:56:47;8.68;;;3.00;;
38222;SDS011;24024;51.186;6.458;2022-07-10T09:59:18;9.55;;;3.25;;
38222;SDS011;24024;51.186;6.458;2022-07-10T10:01:49;6.05;;;2.83;;
38222;SDS011;24024;51.186;6.458;2022-07-10T10:04:18;7.47;;;2.67;;
38222;SDS011;24024;51.186;6.458;2022-07-10T10:06:46;9.45;;;2.75;;
38222;SDS011;24024;51.186;6.458;2022-07-10T10:11:54;8.25;;;2.90;;
38222;SDS011;24024;51.186;6.458;2022-07-10T10:14:27;5.85;;;3.00;;
38222;SDS011;24024;51.186;6.458;2022-07-10T10:16:55;6.78;;;2.63;;
38222;SDS011;24024;51.186;6.458;2022-07-10T10:19:23;6.40;;;2.85;;
38222;SDS011;24024;51.186;6.458;2022-07-10T10:22:14;8.07;;;3.63;;
38222;SDS011;24024;51.186;6.458;2022-07-10T10:24:43;10.48;;;4.10;;
38222;SDS011;24024;51.186;6.458;2022-07-10T10:27:14;7.93;;;3.10;;
38222;SDS011;24024;51.186;6.458;2022-07-10T10:29:44;8.50;;;3.20;;
38222;SDS011;24024;51.186;6.458;2022-07-10T10:32:14;8.15;;;2.67;;
38222;SDS011;24024;51.186;6.458;2022-07-10T10:34:42;6.95;;;2.83;;
38222;SDS011;24024;51.186;6.458;2022-07-10T10:40:07;7.60;;;2.80;;
38222;SDS011;24024;51.186;6.458;2022-07-10T10:48:05;5.53;;;2.55;;
38222;SDS011;24024;51.186;6.458;2022-07-10T10:50:56;6.70;;;2.30;;
38222;SDS011;24024;51.186;6.458;2022-07-10T10:53:27;7.03;;;2.97;;
38222;SDS011;24024;51.186;6.458;2022-07-10T10:56:20;7.93;;;3.80;;
38222;SDS011;24024;51.186;6.458;2022-07-10T10:58:46;8.85;;;2.53;;
38222;SDS011;24024;51.186;6.458;2022-07-10T11:06:40;6.75;;;2.17;;
38222;SDS011;24024;51.186;6.458;2022-07-10T11:09:32;6.68;;;2.22;;
38222;SDS011;24024;51.186;6.458;2022-07-10T11:12:08;7.57;;;2.35;;
38222;SDS011;24024;51.186;6.458;2022-07-10T11:14:37;6.57;;;2.10;;
38222;SDS011;24024;51.186;6.458;2022-07-10T11:17:14;8.57;;;2.30;;
38222;SDS011;24024;51.186;6.458;2022-07-10T11:19:43;7.70;;;2.38;;
38222;SDS011;24024;51.186;6.458;2022-07-10T11:30:51;4.20;;;1.77;;
38222;SDS011;24024;51.186;6.458;2022-07-10T11:33:20;7.18;;;2.13;;
38222;SDS011;24024;51.186;6.458;2022-07-10T11:35:49;4.90;;;1.80;;
38222;SDS011;24024;51.186;6.458;2022-07-10T11:38:24;5.68;;;2.00;;
38222;SDS011;24024;51.186;6.458;2022-07-10T11:40:54;8.65;;;1.92;;
38222;SDS011;24024;51.186;6.458;2022-07-10T11:43:21;4.90;;;1.80;;
38222;SDS011;24024;51.186;6.458;2022-07-10T11:45:50;7.50;;;2.28;;
38222;SDS011;24024;51.186;6.458;2022-07-10T11:48:20;6.20;;;1.85;;
38222;SDS011;24024;51.186;6.458;2022-07-10T11:50:48;6.13;;;1.90;;
38222;SDS011;24024;51.186;6.458;2022-07-10T11:53:24;8.80;;;1.95;;
38222;SDS011;24024;51.186;6.458;2022-07-10T11:55:54;5.28;;;1.65;;
38222;SDS011;24024;51.186;6.458;2022-07-10T11:58:21;6.13;;;2.13;;
38222;SDS011;24024;51.186;6.458;2022-07-10T12:00:58;4.05;;;1.92;;
38222;SDS011;24024;51.186;6.458;2022-07-10T12:03:32;5.70;;;1.90;;
38222;SDS011;24024;51.186;6.458;2022-07-10T12:06:03;5.63;;;2.13;;
38222;SDS011;24024;51.186;6.458;2022-07-10T12:08:47;9.13;;;2.53;;
38222;SDS011;24024;51.186;6.458;2022-07-10T12:11:15;6.50;;;2.33;;
38222;SDS011;24024;51.186;6.458;2022-07-10T12:13:43;7.47;;;3.00;;
38222;SDS011;24024;51.186;6.458;2022-07-10T12:16:11;7.28;;;2.17;;
38222;SDS011;24024;51.186;6.458;2022-07-10T12:18:38;7.13;;;2.15;;
38222;SDS011;24024;51.186;6.458;2022-07-10T12:21:12;5.60;;;2.30;;
38222;SDS011;24024;51.186;6.458;2022-07-10T12:23:40;8.25;;;2.60;;
38222;SDS011;24024;51.186;6.458;2022-07-10T12:26:12;6.43;;;2.35;;
38222;SDS011;24024;51.186;6.458;2022-07-10T12:28:53;8.43;;;2.33;;
38222;SDS011;24024;51.186;6.458;2022-07-10T12:31:25;7.90;;;2.40;;
38222;SDS011;24024;51.186;6.458;2022-07-10T12:33:54;5.88;;;2.47;;
38222;SDS011;24024;51.186;6.458;2022-07-10T12:36:41;9.05;;;2.25;;
38222;SDS011;24024;51.186;6.458;2022-07-10T12:39:21;4.50;;;1.83;;
38222;SDS011;24024;51.186;6.458;2022-07-10T12:42:05;7.18;;;2.40;;
38222;SDS011;24024;51.186;6.458;2022-07-10T12:44:33;7.47;;;2.20;;
38222;SDS011;24024;51.186;6.458;2022-07-10T12:47:14;6.65;;;2.40;;
38222;SDS011;24024;51.186;6.458;2022-07-10T12:52:36;4.63;;;1.90;;
38222;SDS011;24024;51.186;6.458;2022-07-10T12:55:06;7.97;;;2.92;;
38222;SDS011;24024;51.186;6.458;2022-07-10T13:00:29;6.18;;;2.30;;
38222;SDS011;24024;51.186;6.458;2022-07-10T13:10:37;5.43;;;2.08;;
38222;SDS011;24024;51.186;6.458;2022-07-10T13:13:09;4.72;;;1.98;;
38222;SDS011;24024;51.186;6.458;2022-07-10T13:15:39;5.40;;;2.28;;
38222;SDS011;24024;51.186;6.458;2022-07-10T13:18:07;6.88;;;2.30;;
38222;SDS011;24024;51.186;6.458;2022-07-10T13:20:38;6.47;;;2.37;;
38222;SDS011;24024;51.186;6.458;2022-07-10T13:23:07;9.57;;;3.00;;
38222;SDS011;24024;51.186;6.458;2022-07-10T13:25:34;5.32;;;2.22;;
38222;SDS011;24024;51.186;6.458;2022-07-10T13:28:02;6.15;;;2.25;;
38222;SDS011;24024;51.186;6.458;2022-07-10T13:30:29;7.70;;;2.17;;
38222;SDS011;24024;51.186;6.458;2022-07-10T13:32:56;6.40;;;2.08;;
38222;SDS011;24024;51.186;6.458;2022-07-10T13:35:23;4.85;;;2.00;;
38222;SDS011;24024;51.186;6.458;2022-07-10T13:37:50;7.10;;;2.35;;
38222;SDS011;24024;51.186;6.458;2022-07-10T13:40:17;4.20;;;1.75;;
38222;SDS011;24024;51.186;6.458;2022-07-10T13:42:46;12.10;;;2.05;;
38222;SDS011;24024;51.186;6.458;2022-07-10T13:45:13;6.18;;;2.00;;
38222;SDS011;24024;51.186;6.458;2022-07-10T13:47:40;5.18;;;1.90;;
38222;SDS011;24024;51.186;6.458;2022-07-10T13:50:06;5.40;;;1.60;;
38222;SDS011;24024;51.186;6.458;2022-07-10T13:52:33;5.00;;;1.77;;
38222;SDS011;24024;51.186;6.458;2022-07-10T13:55:00;5.85;;;2.22;;
38222;SDS011;24024;51.186;6.458;2022-07-10T13:57:27;4.25;;;1.52;;
38222;SDS011;24024;51.186;6.458;2022-07-10T13:59:54;6.70;;;2.00;;
38222;SDS011;24024;51.186;6.458;2022-07-10T14:02:23;4.03;;;1.88;;
38222;SDS011;24024;51.186;6.458;2022-07-10T14:04:52;6.32;;;1.75;;
38222;SDS011;24024;51.186;6.458;2022-07-10T14:07:19;4.75;;;1.65;;
38222;SDS011;24024;51.186;6.458;2022-07-10T14:09:46;7.72;;;1.80;;
38222;SDS011;24024;51.186;6.458;2022-07-10T14:12:15;5.93;;;1.85;;
38222;SDS011;24024;51.186;6.458;2022-07-10T14:14:42;5.68;;;1.70;;
38222;SDS011;24024;51.186;6.458;2022-07-10T14:17:08;4.82;;;2.33;;
38222;SDS011;24024;51.186;6.458;2022-07-10T14:19:41;5.57;;;2.17;;
38222;SDS011;24024;51.186;6.458;2022-07-10T14:22:08;3.95;;;2.17;;
38222;SDS011;24024;51.186;6.458;2022-07-10T14:24:35;4.50;;;2.00;;
38222;SDS011;24024;51.186;6.458;2022-07-10T14:27:05;3.85;;;1.45;;
38222;SDS011;24024;51.186;6.458;2022-07-10T14:29:32;4.00;;;1.70;;
38222;SDS011;24024;51.186;6.458;2022-07-10T14:32:01;5.57;;;2.25;;
38222;SDS011;24024;51.186;6.458;2022-07-10T14:34:29;4.82;;;1.90;;
38222;SDS011;24024;51.186;6.458;2022-07-10T14:36:55;6.82;;;1.80;;
38222;SDS011;24024;51.186;6.458;2022-07-10T14:39:26;5.72;;;1.90;;
38222;SDS011;24024;51.186;6.458;2022-07-10T14:41:53;4.82;;;2.10;;
38222;SDS011;24024;51.186;6.458;2022-07-10T14:44:19;6.75;;;1.88;;
38222;SDS011;24024;51.186;6.458;2022-07-10T14:46:47;3.90;;;2.20;;
38222;SDS011;24024;51.186;6.458;2022-07-10T14:49:16;5.18;;;1.90;;
38222;SDS011;24024;51.186;6.458;2022-07-10T14:51:43;6.72;;;3.90;;
38222;SDS011;24024;51.186;6.458;2022-07-10T14:54:12;5.93;;;3.13;;
38222;SDS011;24024;51.186;6.458;2022-07-10T14:56:39;9.50;;;4.32;;
38222;SDS011;24024;51.186;6.458;2022-07-10T14:59:06;5.97;;;2.70;;
38222;SDS011;24024;51.186;6.458;2022-07-10T15:01:40;4.85;;;2.55;;
38222;SDS011;24024;51.186;6.458;2022-07-10T15:04:07;5.47;;;2.42;;
38222;SDS011;24024;51.186;6.458;2022-07-10T15:06:36;4.55;;;2.00;;
38222;SDS011;24024;51.186;6.458;2022-07-10T15:09:05;4.28;;;2.35;;
38222;SDS011;24024;51.186;6.458;2022-07-10T15:11:34;7.22;;;3.47;;
38222;SDS011;24024;51.186;6.458;2022-07-10T15:14:02;6.85;;;3.45;;
38222;SDS011;24024;51.186;6.458;2022-07-10T15:16:30;6.05;;;2.45;;
38222;SDS011;24024;51.186;6.458;2022-07-10T15:19:00;7.68;;;2.25;;
38222;SDS011;24024;51.186;6.458;2022-07-10T15:21:27;4.30;;;1.90;;
38222;SDS011;24024;51.186;6.458;2022-07-10T15:23:54;4.78;;;1.98;;
38222;SDS011;24024;51.186;6.458;2022-07-10T15:26:22;3.97;;;1.63;;
38222;SDS011;24024;51.186;6.458;2022-07-10T15:28:49;5.47;;;1.30;;
38222;SDS011;24024;51.186;6.458;2022-07-10T15:31:15;4.57;;;1.50;;
38222;SDS011;24024;51.186;6.458;2022-07-10T15:33:44;5.05;;;1.42;;
38222;SDS011;24024;51.186;6.458;2022-07-10T15:36:12;6.75;;;2.60;;
38222;SDS011;24024;51.186;6.458;2022-07-10T15:38:39;4.85;;;1.67;;
38222;SDS011;24024;51.186;6.458;2022-07-10T15:41:07;3.30;;;1.35;;
38222;SDS011;24024;51.186;6.458;2022-07-10T15:43:34;5.97;;;1.70;;
38222;SDS011;24024;51.186;6.458;2022-07-10T15:46:01;5.30;;;2.03;;
38222;SDS011;24024;51.186;6.458;2022-07-10T15:48:32;4.90;;;2.20;;